createdAt,value
2024-05-09T00:00:45.727Z,1.60
2024-05-09T00:03:14.442Z,1.90
2024-05-09T00:05:43.677Z,1.50
2024-05-09T00:08:12.703Z,1.90
2024-05-09T00:10:41.682Z,1.70
2024-05-09T00:13:11.129Z,1.70
2024-05-09T00:15:39.768Z,1.70
2024-05-09T00:18:08.880Z,1.70
2024-05-09T00:20:40.432Z,1.80
2024-05-09T00:23:10.143Z,1.70
2024-05-09T00:25:38.491Z,1.80
2024-05-09T00:28:07.385Z,1.60
2024-05-09T00:30:37.132Z,2.00
2024-05-09T00:33:08.373Z,2.40
2024-05-09T00:35:38.619Z,2.30
2024-05-09T00:38:07.474Z,1.80
2024-05-09T00:40:40.024Z,2.00
2024-05-09T00:43:11.147Z,1.90
2024-05-09T00:45:39.888Z,1.80
2024-05-09T00:48:11.043Z,1.90
2024-05-09T00:50:42.517Z,1.90
2024-05-09T00:53:12.902Z,2.00
2024-05-09T00:55:41.944Z,1.90
2024-05-09T00:58:13.881Z,1.80
2024-05-09T01:00:42.966Z,2.10
2024-05-09T01:03:13.673Z,1.90
2024-05-09T01:05:43.665Z,2.30
2024-05-09T01:08:13.199Z,1.90
2024-05-09T01:10:44.952Z,2.00
2024-05-09T01:13:14.501Z,1.90
2024-05-09T01:15:43.699Z,2.00
2024-05-09T01:18:13.861Z,2.10
2024-05-09T01:20:44.754Z,2.00
2024-05-09T01:23:16.059Z,1.80
2024-05-09T01:25:46.671Z,2.10
2024-05-09T01:28:15.541Z,2.10
2024-05-09T01:30:44.324Z,2.20
2024-05-09T01:33:15.113Z,2.00
2024-05-09T01:35:44.568Z,2.10
2024-05-09T01:38:13.223Z,2.30
2024-05-09T01:40:43.107Z,2.00
2024-05-09T01:43:12.441Z,2.00
2024-05-09T01:45:41.371Z,1.60
2024-05-09T01:48:10.883Z,2.00
2024-05-09T01:50:42.425Z,2.50
2024-05-09T01:53:14.558Z,2.20
2024-05-09T01:55:44.146Z,2.40
2024-05-09T01:58:13.786Z,2.40
2024-05-09T02:00:43.586Z,2.30
2024-05-09T02:03:15.876Z,2.00
2024-05-09T02:05:47.474Z,1.90
2024-05-09T02:08:18.817Z,2.20
2024-05-09T02:10:49.520Z,2.40
2024-05-09T02:13:18.560Z,1.80
2024-05-09T02:15:46.962Z,2.00
2024-05-09T02:18:15.500Z,2.20
2024-05-09T02:20:44.256Z,1.90
2024-05-09T02:23:13.201Z,2.20
2024-05-09T02:25:41.987Z,2.20
2024-05-09T02:28:10.300Z,2.20
2024-05-09T02:30:41.392Z,1.90
2024-05-09T02:33:12.998Z,1.70
2024-05-09T02:35:44.139Z,1.90
2024-05-09T02:38:13.522Z,2.10
2024-05-09T02:40:42.229Z,2.00
2024-05-09T02:43:13.240Z,2.20
2024-05-09T02:45:41.996Z,2.10
2024-05-09T02:48:13.164Z,2.50
2024-05-09T02:50:43.463Z,2.10
2024-05-09T02:53:13.790Z,2.00
2024-05-09T02:55:43.351Z,2.50
2024-05-09T02:58:12.546Z,2.30
2024-05-09T03:00:42.747Z,2.30
2024-05-09T03:03:14.246Z,2.20
2024-05-09T03:05:45.406Z,2.20
2024-05-09T03:08:14.547Z,2.20
2024-05-09T03:10:43.075Z,2.70
2024-05-09T03:13:14.947Z,2.00
2024-05-09T03:15:45.432Z,2.30
2024-05-09T03:18:15.604Z,2.20
2024-05-09T03:20:44.556Z,1.80
2024-05-09T03:23:14.343Z,2.30
2024-05-09T03:25:42.915Z,2.50
2024-05-09T03:28:12.047Z,2.50
2024-05-09T03:30:42.965Z,6.60
2024-05-09T03:35:41.204Z,2.90
2024-05-09T03:38:10.087Z,2.00
2024-05-09T03:40:45.131Z,2.50
2024-05-09T03:43:14.738Z,2.00
2024-05-09T03:45:44.292Z,2.10
2024-05-09T03:48:13.007Z,2.20
2024-05-09T03:50:42.229Z,2.40
2024-05-09T03:53:12.555Z,2.40
2024-05-09T03:55:41.634Z,2.20
2024-05-09T03:58:12.273Z,2.60
2024-05-09T04:00:41.457Z,2.80
2024-05-09T04:03:12.088Z,2.70
2024-05-09T04:05:43.513Z,3.40
2024-05-09T04:08:15.300Z,2.20
2024-05-09T04:10:45.016Z,2.20
2024-05-09T04:13:13.608Z,2.60
2024-05-09T04:15:42.219Z,3.20
2024-05-09T04:18:13.856Z,2.30
2024-05-09T04:20:42.316Z,3.50
2024-05-09T04:23:13.879Z,3.20
2024-05-09T04:25:46.078Z,3.30
2024-05-09T04:28:14.800Z,2.80
2024-05-09T04:30:43.641Z,2.60
2024-05-09T04:33:14.801Z,2.80
2024-05-09T04:35:44.341Z,2.50
2024-05-09T04:38:14.238Z,2.50
2024-05-09T04:40:43.527Z,3.20
2024-05-09T04:43:16.486Z,2.80
2024-05-09T04:45:47.281Z,2.50
2024-05-09T04:48:16.138Z,3.00
2024-05-09T04:50:44.867Z,3.10
2024-05-09T04:53:16.611Z,2.80
2024-05-09T04:55:45.578Z,3.20
2024-05-09T04:58:13.982Z,2.80
2024-05-09T05:00:44.298Z,3.00
2024-05-09T05:03:15.170Z,2.70
2024-05-09T05:05:45.897Z,2.70
2024-05-09T05:08:15.888Z,3.10
2024-05-09T05:10:44.899Z,2.60
2024-05-09T05:13:19.282Z,2.50
2024-05-09T05:18:18.683Z,2.80
2024-05-09T05:20:47.551Z,2.40
2024-05-09T05:23:20.875Z,2.80
2024-05-09T05:25:56.169Z,2.70
2024-05-09T05:28:25.580Z,3.00
2024-05-09T05:30:56.578Z,2.70
2024-05-09T05:33:24.881Z,2.80
2024-05-09T05:35:54.366Z,2.80
2024-05-09T05:38:26.092Z,2.70
2024-05-09T05:40:56.522Z,3.40
2024-05-09T05:43:24.931Z,3.00
2024-05-09T05:45:56.146Z,2.90
2024-05-09T05:48:25.191Z,3.00
2024-05-09T05:50:53.624Z,2.70
2024-05-09T05:53:22.454Z,3.20
2024-05-09T05:55:51.436Z,2.60
2024-05-09T05:58:20.990Z,2.40
2024-05-09T06:00:52.430Z,2.70
2024-05-09T06:03:23.422Z,2.80
2024-05-09T06:06:04.358Z,2.90
2024-05-09T06:08:33.366Z,2.40
2024-05-09T06:11:02.497Z,2.40
2024-05-09T06:13:31.267Z,2.20
2024-05-09T06:16:00.476Z,2.50
2024-05-09T06:18:29.908Z,2.50
2024-05-09T06:20:58.812Z,3.20
2024-05-09T06:23:27.944Z,3.40
2024-05-09T06:25:56.416Z,2.90
2024-05-09T06:28:25.023Z,2.40
2024-05-09T06:30:53.663Z,2.70
2024-05-09T06:33:25.739Z,2.60
2024-05-09T06:35:58.801Z,2.90
2024-05-09T06:38:27.684Z,3.00
2024-05-09T06:40:56.389Z,3.10
2024-05-09T06:43:25.376Z,2.90
2024-05-09T06:45:53.852Z,3.20
2024-05-09T06:48:22.978Z,3.20
2024-05-09T06:50:51.915Z,3.30
2024-05-09T06:53:22.828Z,4.70
2024-05-09T06:55:55.107Z,3.00
2024-05-09T06:58:23.759Z,2.70
2024-05-09T07:00:52.327Z,2.50
2024-05-09T07:03:21.299Z,2.40
2024-05-09T07:05:50.245Z,2.50
2024-05-09T07:08:19.084Z,2.90
2024-05-09T07:10:47.988Z,2.50
2024-05-09T07:13:17.267Z,2.20
2024-05-09T07:15:45.651Z,2.40
2024-05-09T07:18:18.051Z,2.80
2024-05-09T07:20:48.540Z,2.10
2024-05-09T07:23:18.188Z,1.30
2024-05-09T07:25:47.103Z,1.70
2024-05-09T07:28:17.158Z,1.60
2024-05-09T07:30:46.241Z,1.80
2024-05-09T07:33:18.014Z,1.40
2024-05-09T07:35:47.265Z,1.60
2024-05-09T07:38:16.866Z,1.40
2024-05-09T07:40:45.729Z,1.40
2024-05-09T07:43:15.210Z,1.50
2024-05-09T07:45:51.698Z,1.10
2024-05-09T07:52:38.632Z,1.10
2024-05-09T07:53:47.998Z,1.10
2024-05-09T07:56:22.090Z,1.50
2024-05-09T07:58:53.273Z,1.60
2024-05-09T08:01:22.325Z,1.20
2024-05-09T08:03:50.974Z,1.20
2024-05-09T08:06:19.364Z,1.40
2024-05-09T08:08:47.756Z,1.80
2024-05-09T08:11:16.491Z,1.30
2024-05-09T08:13:44.985Z,1.70
2024-05-09T08:16:14.584Z,1.20
2024-05-09T08:18:43.254Z,1.60
2024-05-09T08:21:11.777Z,1.40
2024-05-09T08:23:40.071Z,1.50
2024-05-09T08:26:08.421Z,1.00
2024-05-09T08:28:36.681Z,1.30
2024-05-09T08:31:07.047Z,1.20
2024-05-09T08:36:07.613Z,1.60
2024-05-09T08:38:35.955Z,1.80
2024-05-09T08:41:05.097Z,1.50
2024-05-09T08:43:33.645Z,1.50
2024-05-09T08:46:07.036Z,1.50
2024-05-09T08:48:38.981Z,1.80
2024-05-09T08:51:07.794Z,1.50
2024-05-09T08:53:36.191Z,1.10
2024-05-09T08:56:09.335Z,1.80
2024-05-09T08:58:39.073Z,1.10
2024-05-09T09:01:07.702Z,1.50
2024-05-09T09:03:38.331Z,1.20
2024-05-09T09:06:08.986Z,1.90
2024-05-09T09:08:39.268Z,2.30
2024-05-09T09:11:07.745Z,1.40
2024-05-09T09:13:36.046Z,1.20
2024-05-09T09:16:06.111Z,1.50
2024-05-09T09:18:34.677Z,1.60
2024-05-09T09:21:03.565Z,4.80
2024-05-09T09:23:33.033Z,2.40
2024-05-09T09:26:01.585Z,1.30
2024-05-09T09:28:31.033Z,1.40
2024-05-09T09:31:03.610Z,1.60
2024-05-09T09:33:32.529Z,1.40
2024-05-09T09:36:07.599Z,1.30
2024-05-09T09:38:37.953Z,1.20
2024-05-09T09:41:10.231Z,1.80
2024-05-09T09:43:40.321Z,1.50
2024-05-09T09:46:12.909Z,1.30
2024-05-09T09:48:45.106Z,1.40
2024-05-09T09:51:15.028Z,1.40
2024-05-09T09:53:44.709Z,1.20
2024-05-09T09:56:17.227Z,1.50
2024-05-09T09:58:46.564Z,1.50
2024-05-09T10:01:15.295Z,1.30
2024-05-09T10:03:45.784Z,1.20
2024-05-09T10:06:15.591Z,1.30
2024-05-09T10:08:46.632Z,1.30
2024-05-09T10:11:20.317Z,1.60
2024-05-09T10:13:54.940Z,1.20
2024-05-09T10:16:30.359Z,1.80
2024-05-09T10:18:59.276Z,1.20
2024-05-09T10:21:27.959Z,1.40
2024-05-09T10:24:01.814Z,1.40
2024-05-09T10:26:34.356Z,1.40
2024-05-09T10:29:11.898Z,1.60
2024-05-09T10:31:42.447Z,1.40
2024-05-09T10:34:21.558Z,1.20
2024-05-09T10:36:53.862Z,1.40
2024-05-09T10:39:22.832Z,2.50
2024-05-09T10:41:51.413Z,1.60
2024-05-09T10:44:22.281Z,1.00
2024-05-09T10:49:18.678Z,1.40
2024-05-09T10:51:48.390Z,1.40
2024-05-09T10:54:17.511Z,1.40
2024-05-09T10:56:45.994Z,1.30
2024-05-09T10:59:15.096Z,3.20
2024-05-09T11:01:45.295Z,1.40
2024-05-09T11:04:15.526Z,1.50
2024-05-09T11:06:47.622Z,1.50
2024-05-09T11:09:16.666Z,1.50
2024-05-09T11:11:45.639Z,1.40
2024-05-09T11:14:14.194Z,1.50
2024-05-09T11:16:42.606Z,1.40
2024-05-09T11:19:13.881Z,1.40
2024-05-09T11:21:42.997Z,1.00
2024-05-09T11:24:11.900Z,1.20
2024-05-09T11:26:40.494Z,1.20
2024-05-09T11:29:09.269Z,1.30
2024-05-09T11:31:46.898Z,1.40
2024-05-09T11:34:15.780Z,1.30
2024-05-09T11:36:44.639Z,1.20
2024-05-09T11:39:14.030Z,1.20
2024-05-09T11:41:43.042Z,1.10
2024-05-09T11:44:12.470Z,1.30
2024-05-09T11:46:40.835Z,1.10
2024-05-09T11:49:09.799Z,1.20
2024-05-09T11:51:38.322Z,1.50
2024-05-09T11:54:06.524Z,1.40
2024-05-09T11:56:34.838Z,1.10
2024-05-09T11:59:03.969Z,0.90
2024-05-09T12:01:32.523Z,1.20
2024-05-09T12:04:01.214Z,1.30
2024-05-09T12:06:29.974Z,1.10
2024-05-09T12:09:00.488Z,1.10
2024-05-09T12:11:28.817Z,1.20
2024-05-09T12:13:57.168Z,1.00
2024-05-09T12:16:25.900Z,1.30
2024-05-09T12:18:54.619Z,1.20
2024-05-09T12:21:23.091Z,1.20
2024-05-09T12:23:51.498Z,1.10
2024-05-09T12:26:20.196Z,0.90
2024-05-09T12:28:48.509Z,1.30
2024-05-09T12:31:16.945Z,1.40
2024-05-09T12:33:45.757Z,1.40
2024-05-09T12:36:14.136Z,0.90
2024-05-09T12:38:42.581Z,1.40
2024-05-09T12:41:11.793Z,1.40
2024-05-09T12:43:40.116Z,1.40
2024-05-09T12:46:08.446Z,1.00
2024-05-09T12:48:37.956Z,1.40
2024-05-09T12:51:06.673Z,1.50
2024-05-09T12:53:36.741Z,1.50
2024-05-09T12:56:07.972Z,1.30
2024-05-09T12:58:37.507Z,1.20
2024-05-09T13:01:06.016Z,1.10
2024-05-09T13:03:34.873Z,1.10
2024-05-09T13:06:03.952Z,1.20
2024-05-09T13:08:32.193Z,1.30
2024-05-09T13:11:00.955Z,1.00
2024-05-09T13:13:29.850Z,1.20
2024-05-09T13:15:59.149Z,1.10
2024-05-09T13:18:27.917Z,1.20
2024-05-09T13:20:56.287Z,1.10
2024-05-09T13:23:24.523Z,1.20
2024-05-09T13:25:52.852Z,1.30
2024-05-09T13:28:22.166Z,1.00
2024-05-09T13:30:51.175Z,1.10
2024-05-09T13:33:20.205Z,1.10
2024-05-09T13:35:50.679Z,1.20
2024-05-09T13:38:20.616Z,1.10
2024-05-09T13:40:50.180Z,1.30
2024-05-09T13:43:21.090Z,1.10
2024-05-09T13:45:49.731Z,1.10
2024-05-09T13:48:18.793Z,1.30
2024-05-09T13:50:48.118Z,1.10
2024-05-09T13:53:16.486Z,1.30
2024-05-09T13:55:44.844Z,1.00
2024-05-09T13:58:13.212Z,1.30
2024-05-09T14:00:46.755Z,1.20
2024-05-09T14:03:19.637Z,1.10
2024-05-09T14:05:50.420Z,1.20
2024-05-09T14:08:21.018Z,1.00
2024-05-09T14:10:50.287Z,1.00
2024-05-09T14:13:18.970Z,1.20
2024-05-09T14:15:47.592Z,1.30
2024-05-09T14:18:16.339Z,1.10
2024-05-09T14:20:44.885Z,1.20
2024-05-09T14:23:13.970Z,1.20
2024-05-09T14:25:43.594Z,1.20
2024-05-09T14:28:14.713Z,1.00
2024-05-09T14:30:43.312Z,1.10
2024-05-09T14:33:12.090Z,1.20
2024-05-09T14:35:40.558Z,1.10
2024-05-09T14:38:10.191Z,1.30
2024-05-09T14:40:42.731Z,0.90
2024-05-09T14:43:13.889Z,1.20
2024-05-09T14:45:43.482Z,0.90
2024-05-09T14:48:13.898Z,1.10
2024-05-09T14:50:42.667Z,1.20
2024-05-09T14:53:12.318Z,1.00
2024-05-09T14:55:42.947Z,1.10
2024-05-09T14:58:13.005Z,1.10
2024-05-09T15:00:46.525Z,1.40
2024-05-09T15:03:20.259Z,1.20
2024-05-09T15:05:49.727Z,1.00
2024-05-09T15:08:19.382Z,1.40
2024-05-09T15:10:50.683Z,1.30
2024-05-09T15:13:20.027Z,1.50
2024-05-09T15:15:49.248Z,1.30
2024-05-09T15:18:18.144Z,1.00
2024-05-09T15:20:47.620Z,1.00
2024-05-09T15:23:16.032Z,1.30
2024-05-09T15:25:45.554Z,1.60
2024-05-09T15:28:13.959Z,1.20
2024-05-09T15:30:46.067Z,1.50
2024-05-09T15:33:18.261Z,1.20
2024-05-09T15:35:47.465Z,1.10
2024-05-09T15:38:17.276Z,1.20
2024-05-09T15:40:45.974Z,1.20
2024-05-09T15:43:14.813Z,1.20
2024-05-09T15:45:43.511Z,1.00
2024-05-09T15:48:11.989Z,1.40
2024-05-09T15:50:42.411Z,1.10
2024-05-09T15:53:13.052Z,1.20
2024-05-09T15:55:42.488Z,1.30
2024-05-09T15:58:12.397Z,1.10
2024-05-09T16:00:44.219Z,1.60
2024-05-09T16:03:14.871Z,1.20
2024-05-09T16:05:47.344Z,1.40
2024-05-09T16:08:16.614Z,1.10
2024-05-09T16:10:47.028Z,1.00
2024-05-09T16:13:16.520Z,1.30
2024-05-09T16:15:45.650Z,1.20
2024-05-09T16:18:15.420Z,1.20
2024-05-09T16:20:45.530Z,1.20
2024-05-09T16:23:15.541Z,1.30
2024-05-09T16:25:46.934Z,1.20
2024-05-09T16:28:15.339Z,1.20
2024-05-09T16:30:43.840Z,1.20
2024-05-09T16:33:12.537Z,1.20
2024-05-09T16:35:41.402Z,1.00
2024-05-09T16:38:09.835Z,1.10
2024-05-09T16:40:40.701Z,1.10
2024-05-09T16:43:11.327Z,1.10
2024-05-09T16:45:43.071Z,1.30
2024-05-09T16:48:12.166Z,1.40
2024-05-09T16:50:40.488Z,1.20
2024-05-09T16:53:08.854Z,1.00
2024-05-09T16:55:37.666Z,1.10
2024-05-09T16:58:11.377Z,1.00
2024-05-09T17:00:43.214Z,0.90
2024-05-09T17:03:14.836Z,0.90
2024-05-09T17:05:44.817Z,1.00
2024-05-09T17:08:14.661Z,1.00
2024-05-09T17:10:43.338Z,1.20
2024-05-09T17:13:11.697Z,1.00
2024-05-09T17:15:40.184Z,1.00
2024-05-09T17:18:09.653Z,1.30
2024-05-09T17:20:38.202Z,1.10
2024-05-09T17:23:11.911Z,1.10
2024-05-09T17:25:42.661Z,1.10
2024-05-09T17:28:12.181Z,0.90
2024-05-09T17:30:42.259Z,1.10
2024-05-09T17:33:12.731Z,1.20
2024-05-09T17:35:41.925Z,1.40
2024-05-09T17:38:10.381Z,1.10
2024-05-09T17:40:39.454Z,1.70
2024-05-09T17:43:10.565Z,1.10
2024-05-09T17:45:40.841Z,1.30
2024-05-09T17:48:11.795Z,1.10
2024-05-09T17:50:41.711Z,1.20
2024-05-09T17:53:11.225Z,1.10
2024-05-09T17:55:40.629Z,1.00
2024-05-09T17:58:09.879Z,1.30
2024-05-09T18:00:41.279Z,1.10
2024-05-09T18:03:19.047Z,1.10
2024-05-09T18:05:47.796Z,1.20
2024-05-09T18:08:16.527Z,1.10
2024-05-09T18:10:45.372Z,1.20
2024-05-09T18:13:14.169Z,1.30
2024-05-09T18:15:46.353Z,5.00
2024-05-09T18:18:15.647Z,2.50
2024-05-09T18:24:02.923Z,3.30
2024-05-09T18:26:31.334Z,1.90
2024-05-09T18:28:59.688Z,2.10
2024-05-09T18:31:28.246Z,2.90
2024-05-09T18:33:56.723Z,2.50
2024-05-09T18:36:26.359Z,2.00
2024-05-09T18:38:54.751Z,3.60
2024-05-09T18:41:23.156Z,2.90
2024-05-09T18:43:52.634Z,1.90
2024-05-09T18:46:21.325Z,2.00
2024-05-09T18:48:49.797Z,1.80
2024-05-09T18:51:18.505Z,2.70
2024-05-09T18:53:46.751Z,3.60
2024-05-09T18:56:14.994Z,2.30
2024-05-09T18:58:43.211Z,1.90
2024-05-09T19:01:11.537Z,1.60
2024-05-09T19:03:43.537Z,1.50
2024-05-09T19:06:12.070Z,2.00
2024-05-09T19:08:40.935Z,1.50
2024-05-09T19:11:09.567Z,2.00
2024-05-09T19:13:37.831Z,1.70
2024-05-09T19:16:07.248Z,1.40
2024-05-09T19:18:36.258Z,1.40
2024-05-09T19:21:05.360Z,1.60
2024-05-09T19:23:38.081Z,1.60
2024-05-09T19:26:09.242Z,1.60
2024-05-09T19:28:37.521Z,1.50
2024-05-09T19:31:05.938Z,1.60
2024-05-09T19:33:36.956Z,1.60
2024-05-09T19:38:36.061Z,1.20
2024-05-09T19:41:04.897Z,1.90
2024-05-09T19:43:36.033Z,1.50
2024-05-09T19:46:04.907Z,1.70
2024-05-09T19:48:33.541Z,1.50
2024-05-09T19:51:02.079Z,2.20
2024-05-09T19:53:30.512Z,2.00
2024-05-09T19:55:58.943Z,1.90
2024-05-09T19:58:27.367Z,1.50
2024-05-09T20:00:55.834Z,1.60
2024-05-09T20:03:33.302Z,1.60
2024-05-09T20:06:01.796Z,1.90
2024-05-09T20:08:30.411Z,2.10
2024-05-09T20:10:58.839Z,4.80
2024-05-09T20:13:27.325Z,3.90
2024-05-09T20:15:55.689Z,2.00
2024-05-09T20:18:24.128Z,2.20
2024-05-09T20:20:53.995Z,1.80
2024-05-09T20:23:22.960Z,1.50
2024-05-09T20:25:51.331Z,1.80
2024-05-09T20:28:20.004Z,1.90
2024-05-09T20:30:48.950Z,2.40
2024-05-09T20:33:17.424Z,2.20
2024-05-09T20:35:46.235Z,2.40
2024-05-09T20:38:14.626Z,2.50
2024-05-09T20:40:43.527Z,2.30
2024-05-09T20:43:13.417Z,2.40
2024-05-09T20:45:42.021Z,5.50
2024-05-09T20:48:11.104Z,7.40
2024-05-09T20:50:42.926Z,10.80
2024-05-09T20:53:13.132Z,5.80
2024-05-09T20:55:44.455Z,3.30
2024-05-09T20:58:14.499Z,2.70
2024-05-09T21:00:45.694Z,2.80
2024-05-09T21:03:16.583Z,2.20
2024-05-09T21:05:46.966Z,2.50
2024-05-09T21:08:15.697Z,2.40
2024-05-09T21:10:44.268Z,2.40
2024-05-09T21:13:12.909Z,2.50
2024-05-09T21:15:43.532Z,1.90
2024-05-09T21:18:12.179Z,2.20
2024-05-09T21:20:40.516Z,4.70
2024-05-09T21:23:08.765Z,2.50
2024-05-09T21:25:37.048Z,2.40
2024-05-09T21:28:07.091Z,2.20
2024-05-09T21:30:41.645Z,2.50
2024-05-09T21:33:13.972Z,2.40
2024-05-09T21:35:44.610Z,2.40
2024-05-09T21:38:15.027Z,2.70
2024-05-09T21:40:45.230Z,2.50
2024-05-09T21:43:13.847Z,2.40
2024-05-09T21:45:42.459Z,2.80
2024-05-09T21:48:13.112Z,2.30
2024-05-09T21:50:42.523Z,2.40
2024-05-09T21:53:11.193Z,2.50
2024-05-09T21:55:39.753Z,2.60
2024-05-09T21:58:12.807Z,2.40
2024-05-09T22:00:46.511Z,2.40
2024-05-09T22:03:15.462Z,2.50
2024-05-09T22:05:43.959Z,2.50
2024-05-09T22:08:12.416Z,2.70
2024-05-09T22:10:40.831Z,2.60
2024-05-09T22:13:10.044Z,2.70
2024-05-09T22:15:40.188Z,2.60
2024-05-09T22:18:11.163Z,2.70
2024-05-09T22:20:43.087Z,3.00
2024-05-09T22:25:39.252Z,2.50
2024-05-09T22:28:08.281Z,2.60
2024-05-09T22:30:39.470Z,2.70
2024-05-09T22:33:10.817Z,2.80
2024-05-09T22:35:41.114Z,2.70
2024-05-09T22:38:09.669Z,2.90
2024-05-09T22:40:46.495Z,2.80
2024-05-09T22:43:19.820Z,2.90
2024-05-09T22:48:16.392Z,2.60
2024-05-09T22:50:44.864Z,2.50
2024-05-09T22:53:13.124Z,2.30
2024-05-09T22:55:41.929Z,2.60
2024-05-09T22:58:10.447Z,2.70
2024-05-09T23:00:39.113Z,2.70
2024-05-09T23:03:07.624Z,3.00
2024-05-09T23:05:36.163Z,3.00
2024-05-09T23:08:05.161Z,3.00
2024-05-09T23:10:37.316Z,2.80
2024-05-09T23:13:08.038Z,2.80
2024-05-09T23:15:37.546Z,2.60
2024-05-09T23:18:06.929Z,2.40
2024-05-09T23:20:39.188Z,3.00
2024-05-09T23:23:10.561Z,3.10
2024-05-09T23:25:40.703Z,2.70
2024-05-09T23:28:09.363Z,3.10
2024-05-09T23:30:40.438Z,2.80
2024-05-09T23:33:11.493Z,2.40
2024-05-09T23:35:42.587Z,2.60
2024-05-09T23:38:10.953Z,2.90
2024-05-09T23:40:41.215Z,2.90
2024-05-09T23:43:11.879Z,2.60
2024-05-09T23:45:41.328Z,2.50
2024-05-09T23:48:10.317Z,2.90
2024-05-09T23:50:40.224Z,3.00
2024-05-09T23:53:10.255Z,2.40
2024-05-09T23:55:39.420Z,3.00
2024-05-09T23:58:08.695Z,3.40
